createdAt,value
2023-04-23T00:02:23.815Z,19.55
2023-04-23T00:04:53.783Z,24.00
2023-04-23T00:07:24.302Z,20.83
2023-04-23T00:12:26.951Z,20.42
2023-04-23T00:14:56.936Z,21.10
2023-04-23T00:17:26.837Z,22.10
2023-04-23T00:19:54.135Z,20.67
2023-04-23T00:22:34.901Z,21.42
2023-04-23T00:25:03.486Z,20.88
2023-04-23T00:27:44.198Z,22.00
2023-04-23T00:30:14.269Z,20.48
2023-04-23T00:32:41.893Z,22.00
2023-04-23T00:35:11.870Z,20.40
2023-04-23T00:37:41.756Z,22.92
2023-04-23T00:40:12.171Z,20.40
2023-04-23T00:42:51.449Z,21.98
2023-04-23T00:45:37.751Z,22.07
2023-04-23T00:48:13.986Z,21.70
2023-04-23T00:50:49.055Z,22.90
2023-04-23T00:53:25.372Z,22.23
2023-04-23T00:55:52.856Z,21.88
2023-04-23T00:58:20.382Z,22.27
2023-04-23T01:00:52.682Z,24.40
2023-04-23T01:03:28.036Z,23.92
2023-04-23T01:05:55.721Z,21.88
2023-04-23T01:08:26.211Z,25.08
2023-04-23T01:16:00.872Z,23.05
2023-04-23T01:18:29.747Z,22.85
2023-04-23T01:20:57.815Z,25.05
2023-04-23T01:23:27.245Z,24.98
2023-04-23T01:26:08.504Z,23.50
2023-04-23T01:28:53.697Z,25.30
2023-04-23T01:31:21.194Z,25.25
2023-04-23T01:33:57.117Z,25.92
2023-04-23T01:36:41.676Z,28.95
2023-04-23T01:39:14.701Z,26.10
2023-04-23T01:41:47.759Z,26.58
2023-04-23T01:44:26.848Z,26.75
2023-04-23T01:46:57.685Z,26.05
2023-04-23T01:49:32.187Z,25.63
2023-04-23T01:52:02.228Z,29.08
2023-04-23T01:54:29.583Z,27.90
2023-04-23T01:56:59.393Z,27.73
2023-04-23T01:59:29.343Z,26.30
2023-04-23T02:01:59.056Z,28.10
2023-04-23T02:04:32.347Z,28.55
2023-04-23T02:07:06.199Z,29.23
2023-04-23T02:09:35.815Z,30.30
2023-04-23T02:12:07.994Z,30.13
2023-04-23T02:14:39.388Z,32.65
2023-04-23T02:17:07.278Z,30.13
2023-04-23T02:19:36.756Z,32.55
2023-04-23T02:22:04.413Z,30.60
2023-04-23T02:27:21.171Z,31.25
2023-04-23T02:29:49.792Z,29.98
2023-04-23T02:32:18.963Z,30.52
2023-04-23T02:37:29.546Z,29.60
2023-04-23T02:40:06.314Z,34.22
2023-04-23T02:42:33.556Z,31.50
2023-04-23T02:45:03.071Z,33.22
2023-04-23T02:47:31.410Z,33.17
2023-04-23T02:49:59.314Z,33.03
2023-04-23T02:52:34.961Z,33.13
2023-04-23T02:55:02.535Z,33.95
2023-04-23T02:57:33.885Z,32.28
2023-04-23T03:00:12.684Z,32.30
2023-04-23T03:02:42.626Z,32.17
2023-04-23T03:05:13.128Z,30.75
2023-04-23T03:07:49.117Z,33.15
2023-04-23T03:10:17.655Z,31.10
2023-04-23T03:12:49.541Z,32.13
2023-04-23T03:15:19.329Z,28.30
2023-04-23T03:17:51.063Z,32.33
2023-04-23T03:20:35.480Z,28.25
2023-04-23T03:23:11.084Z,30.40
2023-04-23T03:25:38.644Z,28.42
2023-04-23T03:28:05.882Z,27.17
2023-04-23T03:30:35.302Z,29.50
2023-04-23T03:33:10.895Z,25.38
2023-04-23T03:35:40.389Z,25.50
2023-04-23T03:38:17.734Z,29.77
2023-04-23T03:40:49.072Z,28.40
2023-04-23T03:43:21.475Z,27.35
2023-04-23T03:45:53.338Z,28.90
2023-04-23T03:48:21.878Z,29.73
2023-04-23T03:50:57.302Z,28.83
2023-04-23T03:53:30.636Z,26.42
2023-04-23T03:56:01.491Z,28.73
2023-04-23T03:58:32.745Z,27.42
2023-04-23T04:01:09.091Z,29.58
2023-04-23T04:03:41.097Z,31.05
2023-04-23T04:06:26.845Z,30.60
2023-04-23T04:09:03.512Z,27.83
2023-04-23T04:11:36.992Z,27.85
2023-04-23T04:14:04.236Z,26.30
2023-04-23T04:16:32.473Z,26.63
2023-04-23T04:19:04.986Z,19.67
2023-04-23T04:21:33.587Z,24.10
2023-04-23T04:24:07.294Z,21.95
2023-04-23T04:26:39.044Z,21.90
2023-04-23T04:29:15.730Z,21.10
2023-04-23T04:31:47.673Z,21.08
2023-04-23T04:34:19.867Z,18.52
2023-04-23T04:36:52.405Z,16.58
2023-04-23T04:39:25.289Z,14.93
2023-04-23T04:47:17.569Z,14.00
2023-04-23T04:49:47.081Z,11.87
2023-04-23T04:52:16.987Z,11.18
2023-04-23T04:54:44.402Z,11.23
2023-04-23T04:57:16.207Z,9.85
2023-04-23T04:59:43.738Z,10.70
2023-04-23T05:02:16.491Z,10.15
2023-04-23T05:04:47.165Z,8.95
2023-04-23T05:07:14.431Z,10.10
2023-04-23T05:09:45.370Z,9.93
2023-04-23T05:12:12.709Z,9.15
2023-04-23T05:14:40.193Z,8.57
2023-04-23T05:17:07.723Z,7.65
2023-04-23T05:19:37.766Z,9.13
2023-04-23T05:22:08.146Z,8.15
2023-04-23T05:24:35.416Z,8.05
2023-04-23T05:27:08.892Z,7.15
2023-04-23T05:29:40.779Z,7.68
2023-04-23T05:32:16.353Z,7.32
2023-04-23T05:34:45.824Z,8.43
2023-04-23T05:37:31.476Z,7.93
2023-04-23T05:40:02.665Z,7.13
2023-04-23T05:42:38.010Z,7.45
2023-04-23T05:45:10.292Z,7.65
2023-04-23T05:47:37.750Z,7.47
2023-04-23T05:50:12.727Z,7.25
2023-04-23T05:52:48.166Z,7.80
2023-04-23T05:55:18.492Z,7.05
2023-04-23T05:57:51.306Z,7.47
2023-04-23T06:00:30.817Z,7.47
2023-04-23T06:02:58.359Z,7.25
2023-04-23T06:05:33.074Z,7.50
2023-04-23T06:08:00.476Z,6.82
2023-04-23T06:10:30.046Z,6.80
2023-04-23T06:13:08.221Z,7.13
2023-04-23T06:15:45.004Z,6.82
2023-04-23T06:18:23.544Z,6.47
2023-04-23T06:20:56.753Z,6.13
2023-04-23T06:23:27.053Z,6.40
2023-04-23T06:26:09.911Z,6.30
2023-04-23T06:28:37.124Z,6.75
2023-04-23T06:31:05.659Z,6.70
2023-04-23T06:33:37.277Z,5.80
2023-04-23T06:36:09.960Z,5.43
2023-04-23T06:38:41.657Z,6.07
2023-04-23T06:41:08.878Z,5.97
2023-04-23T06:43:40.620Z,5.70
2023-04-23T06:46:16.277Z,5.50
2023-04-23T06:48:45.503Z,5.10
2023-04-23T06:51:15.673Z,4.93
2023-04-23T06:53:49.974Z,5.47
2023-04-23T06:56:20.374Z,5.18
2023-04-23T07:01:22.546Z,4.90
2023-04-23T07:03:58.548Z,4.90
2023-04-23T07:06:29.405Z,4.13
2023-04-23T07:08:58.995Z,3.90
2023-04-23T07:11:33.514Z,3.80
2023-04-23T07:14:00.773Z,3.58
2023-04-23T07:16:34.080Z,5.15
2023-04-23T07:19:10.959Z,4.03
2023-04-23T07:21:48.190Z,3.83
2023-04-23T07:24:26.496Z,3.92
2023-04-23T07:26:58.232Z,4.18
2023-04-23T07:29:28.043Z,4.88
2023-04-23T07:31:57.561Z,4.57
2023-04-23T07:34:24.779Z,4.75
2023-04-23T07:36:56.373Z,4.80
2023-04-23T07:41:57.074Z,4.82
2023-04-23T07:44:24.442Z,4.18
2023-04-23T07:49:45.680Z,3.63
2023-04-23T07:55:04.451Z,4.50
2023-04-23T07:57:31.691Z,3.45
2023-04-23T07:59:58.709Z,3.55
2023-04-23T08:02:27.649Z,3.50
2023-04-23T08:04:55.445Z,3.28
2023-04-23T08:07:22.738Z,4.10
2023-04-23T08:09:49.771Z,3.60
2023-04-23T08:12:17.444Z,3.33
2023-04-23T08:14:47.246Z,2.55
2023-04-23T08:17:18.111Z,2.92
2023-04-23T08:19:45.290Z,2.13
2023-04-23T08:22:13.283Z,2.63
2023-04-23T08:24:41.022Z,2.25
2023-04-23T08:27:08.042Z,2.65
2023-04-23T08:29:35.302Z,2.55
2023-04-23T08:32:02.417Z,2.00
2023-04-23T08:34:29.586Z,2.53
2023-04-23T08:36:56.804Z,2.38
2023-04-23T08:39:23.959Z,1.73
2023-04-23T08:41:55.303Z,2.58
2023-04-23T08:44:26.616Z,2.10
2023-04-23T08:46:54.606Z,1.75
2023-04-23T08:49:21.660Z,2.72
2023-04-23T08:51:50.474Z,1.77
2023-04-23T08:54:20.015Z,2.13
2023-04-23T08:56:47.231Z,1.93
2023-04-23T08:59:14.391Z,2.30
2023-04-23T09:01:42.152Z,2.05
2023-04-23T09:04:10.132Z,1.35
2023-04-23T09:06:37.237Z,2.47
2023-04-23T09:09:04.809Z,2.00
2023-04-23T09:11:32.260Z,2.20
2023-04-23T09:13:59.305Z,2.50
2023-04-23T09:16:27.503Z,1.95
2023-04-23T09:18:54.727Z,1.75
2023-04-23T09:21:21.864Z,0.95
2023-04-23T09:23:52.101Z,1.70
2023-04-23T09:26:22.931Z,1.90
2023-04-23T09:28:53.958Z,1.80
2023-04-23T09:31:22.168Z,1.65
2023-04-23T09:33:55.337Z,1.77
2023-04-23T09:36:23.643Z,1.23
2023-04-23T09:38:51.454Z,1.85
2023-04-23T09:41:25.838Z,1.52
2023-04-23T09:43:56.694Z,1.92
2023-04-23T09:46:34.460Z,1.85
2023-04-23T09:49:02.409Z,1.80
2023-04-23T09:51:30.674Z,1.80
2023-04-23T09:53:58.916Z,1.42
2023-04-23T09:56:26.078Z,1.55
2023-04-23T09:58:53.162Z,1.48
2023-04-23T10:01:28.104Z,1.60
2023-04-23T10:03:56.657Z,1.10
2023-04-23T10:06:42.327Z,1.77
2023-04-23T10:09:13.908Z,1.13
2023-04-23T10:11:42.265Z,1.60
2023-04-23T10:14:09.417Z,1.58
2023-04-23T10:19:08.067Z,1.23
2023-04-23T10:21:46.694Z,1.58
2023-04-23T10:24:21.983Z,1.50
2023-04-23T10:26:50.538Z,1.10
2023-04-23T10:29:18.888Z,1.08
2023-04-23T10:31:46.906Z,1.40
2023-04-23T10:34:14.162Z,2.15
2023-04-23T10:36:41.353Z,1.27
2023-04-23T10:39:10.286Z,1.83
2023-04-23T10:41:41.860Z,1.10
2023-04-23T10:44:12.852Z,1.67
2023-04-23T10:46:51.039Z,1.65
2023-04-23T10:49:18.190Z,0.82
2023-04-23T10:54:20.301Z,0.93
2023-04-23T10:56:58.291Z,1.45
2023-04-23T10:59:25.464Z,0.93
2023-04-23T11:01:52.734Z,1.25
2023-04-23T11:04:21.671Z,1.17
2023-04-23T11:06:49.013Z,1.13
2023-04-23T11:09:42.736Z,1.00
2023-04-23T11:12:14.482Z,1.15
2023-04-23T11:14:49.634Z,0.90
2023-04-23T11:17:18.020Z,1.88
2023-04-23T11:20:03.932Z,1.15
2023-04-23T11:22:38.115Z,0.93
2023-04-23T11:25:06.570Z,1.00
2023-04-23T11:27:33.762Z,1.00
2023-04-23T11:30:00.888Z,0.73
2023-04-23T11:32:28.589Z,0.90
2023-04-23T11:34:57.746Z,0.52
2023-04-23T11:37:25.925Z,1.20
2023-04-23T11:39:52.957Z,1.00
2023-04-23T11:42:20.166Z,0.80
2023-04-23T11:44:47.938Z,0.77
2023-04-23T11:47:18.934Z,0.73
2023-04-23T11:49:46.290Z,0.70
2023-04-23T11:52:14.963Z,0.60
2023-04-23T11:54:42.522Z,0.98
2023-04-23T11:57:10.360Z,1.17
2023-04-23T11:59:37.733Z,0.90
2023-04-23T12:02:04.950Z,1.00
2023-04-23T12:04:33.016Z,0.90
2023-04-23T12:07:00.644Z,0.80
2023-04-23T12:09:28.619Z,1.02
2023-04-23T12:11:56.810Z,1.02
2023-04-23T12:14:31.076Z,2.00
2023-04-23T12:16:58.959Z,0.73
2023-04-23T12:19:38.010Z,0.90
2023-04-23T12:22:05.567Z,0.82
2023-04-23T12:24:51.138Z,0.82
2023-04-23T12:27:21.448Z,0.77
2023-04-23T12:29:54.813Z,1.17
2023-04-23T12:32:25.164Z,0.80
2023-04-23T12:34:53.380Z,1.30
2023-04-23T12:37:24.366Z,1.45
2023-04-23T12:39:53.057Z,1.25
2023-04-23T12:42:20.144Z,0.70
2023-04-23T12:44:47.669Z,1.10
2023-04-23T12:47:19.852Z,1.00
2023-04-23T12:49:49.458Z,1.55
2023-04-23T12:52:16.884Z,1.02
2023-04-23T12:54:44.957Z,1.00
2023-04-23T12:57:13.037Z,1.00
2023-04-23T12:59:40.361Z,1.38
2023-04-23T13:02:07.767Z,0.98
2023-04-23T13:04:35.946Z,1.25
2023-04-23T13:07:02.997Z,0.90
2023-04-23T13:09:30.225Z,1.00
2023-04-23T13:11:57.475Z,0.90
2023-04-23T13:14:24.654Z,0.98
2023-04-23T13:16:58.125Z,0.88
2023-04-23T13:19:25.550Z,0.85
2023-04-23T13:21:53.556Z,0.85
2023-04-23T13:24:20.715Z,1.20
2023-04-23T13:26:47.796Z,1.23
2023-04-23T13:29:14.980Z,1.15
2023-04-23T13:31:42.048Z,1.23
2023-04-23T13:34:09.200Z,1.20
2023-04-23T13:36:37.137Z,1.35
2023-04-23T13:39:04.386Z,1.30
2023-04-23T13:41:31.539Z,1.70
2023-04-23T13:44:06.820Z,1.52
2023-04-23T13:46:39.072Z,1.70
2023-04-23T13:49:07.934Z,1.70
2023-04-23T13:51:36.213Z,1.95
2023-04-23T13:54:08.589Z,2.97
2023-04-23T13:56:38.466Z,1.83
2023-04-23T13:59:19.321Z,3.28
2023-04-23T14:01:54.217Z,2.42
2023-04-23T14:04:24.033Z,2.40
2023-04-23T14:07:00.297Z,2.55
2023-04-23T14:09:30.270Z,2.72
2023-04-23T14:11:57.556Z,2.97
2023-04-23T14:14:31.782Z,2.83
2023-04-23T14:17:07.077Z,2.90
2023-04-23T14:19:44.826Z,2.90
2023-04-23T14:22:12.153Z,2.70
2023-04-23T14:25:07.188Z,2.40
2023-04-23T14:30:38.043Z,3.03
2023-04-23T14:33:14.279Z,3.17
2023-04-23T14:35:52.452Z,2.75
2023-04-23T14:38:19.642Z,2.30
2023-04-23T14:40:52.957Z,2.53
2023-04-23T14:43:25.902Z,2.60
2023-04-23T14:45:54.570Z,2.60
2023-04-23T14:48:31.156Z,2.30
2023-04-23T15:02:13.667Z,2.72
2023-04-23T15:04:43.373Z,2.20
2023-04-23T15:07:11.922Z,1.75
2023-04-23T15:09:41.928Z,2.17
2023-04-23T15:12:30.395Z,3.05
2023-04-23T15:15:00.302Z,2.03
2023-04-23T15:17:35.773Z,1.80
2023-04-23T15:22:50.520Z,1.80
2023-04-23T15:28:00.409Z,1.88
2023-04-23T15:30:32.446Z,1.80
2023-04-23T15:38:26.276Z,2.15
2023-04-23T15:40:59.920Z,1.95
2023-04-23T15:43:28.385Z,1.88
2023-04-23T15:46:00.900Z,1.58
2023-04-23T15:48:31.032Z,2.38
2023-04-23T15:53:39.812Z,1.25
2023-04-23T15:56:22.056Z,1.00
2023-04-23T16:01:35.558Z,1.45
2023-04-23T16:04:11.011Z,1.95
2023-04-23T16:12:13.361Z,1.15
2023-04-23T16:19:58.558Z,1.30
2023-04-23T16:22:32.925Z,1.15
2023-04-23T16:25:06.382Z,0.88
2023-04-23T16:27:42.977Z,1.27
2023-04-23T16:30:12.966Z,1.20
2023-04-23T16:32:45.171Z,1.02
2023-04-23T16:51:23.773Z,0.60
2023-04-23T16:59:03.154Z,0.90
2023-04-23T17:01:36.317Z,0.90
2023-04-23T17:04:08.683Z,1.15
2023-04-23T17:06:36.035Z,0.70
2023-04-23T17:09:08.839Z,0.80
2023-04-23T17:11:43.692Z,1.17
2023-04-23T17:14:14.990Z,0.93
2023-04-23T17:16:45.571Z,1.10
2023-04-23T17:30:01.408Z,0.77
2023-04-23T17:35:10.868Z,0.90
2023-04-23T17:37:40.927Z,1.10
2023-04-23T17:40:09.767Z,1.10
2023-04-23T17:42:37.056Z,0.85
2023-04-23T17:45:07.403Z,0.93
2023-04-23T17:47:42.389Z,1.00
2023-04-23T17:50:18.812Z,0.80
2023-04-23T17:52:45.952Z,1.02
2023-04-23T17:55:14.598Z,0.98
2023-04-23T17:57:44.228Z,0.80
2023-04-23T18:00:20.516Z,0.87
2023-04-23T18:02:49.484Z,1.00
2023-04-23T18:05:22.891Z,0.90
2023-04-23T18:07:52.884Z,1.13
2023-04-23T18:10:25.561Z,1.15
2023-04-23T18:13:00.291Z,1.55
2023-04-23T18:15:29.203Z,1.23
2023-04-23T18:18:11.116Z,1.10
2023-04-23T18:20:42.034Z,0.60
2023-04-23T18:23:20.427Z,0.70
2023-04-23T18:25:54.411Z,0.73
2023-04-23T18:28:41.696Z,0.80
2023-04-23T18:31:09.077Z,0.77
2023-04-23T18:33:57.778Z,1.13
2023-04-23T18:36:38.050Z,0.93
2023-04-23T18:39:07.464Z,0.95
2023-04-23T18:41:37.003Z,1.00
2023-04-23T18:44:04.286Z,1.00
2023-04-23T18:46:40.168Z,0.90
2023-04-23T18:49:33.756Z,1.10
2023-04-23T18:52:08.982Z,0.60
2023-04-23T18:54:40.535Z,0.50
2023-04-23T18:57:19.324Z,0.80
2023-04-23T19:44:01.767Z,1.25
2023-04-23T19:49:12.284Z,1.20
2023-04-23T19:51:48.601Z,1.00
2023-04-23T19:54:22.775Z,0.80
2023-04-23T19:56:55.692Z,0.70
2023-04-23T19:59:31.613Z,0.98
2023-04-23T20:01:59.064Z,0.80
2023-04-23T20:04:26.505Z,0.82
2023-04-23T20:06:55.768Z,0.70
2023-04-23T20:09:26.472Z,0.70
2023-04-23T20:12:05.688Z,0.68
2023-04-23T20:14:55.922Z,0.75
2023-04-23T20:17:31.016Z,0.90
2023-04-23T20:20:02.924Z,0.70
2023-04-23T20:22:33.406Z,0.65
2023-04-23T20:25:03.394Z,0.80
2023-04-23T20:27:31.157Z,0.85
2023-04-23T20:30:17.768Z,0.68
2023-04-23T20:32:56.100Z,0.55
2023-04-23T20:35:25.418Z,0.50
2023-04-23T20:38:01.436Z,0.52
2023-04-23T20:40:29.019Z,0.45
2023-04-23T20:43:04.253Z,0.40
2023-04-23T20:45:32.627Z,0.50
2023-04-23T20:48:02.121Z,0.60
2023-04-23T20:50:29.401Z,0.35
2023-04-23T20:52:59.268Z,0.60
2023-04-23T20:55:29.268Z,0.47
2023-04-23T20:57:58.859Z,0.40
2023-04-23T21:00:34.895Z,0.50
2023-04-23T21:03:05.241Z,0.32
2023-04-23T21:05:35.318Z,0.50
2023-04-23T21:08:02.646Z,0.50
2023-04-23T21:10:35.933Z,1.10
2023-04-23T21:13:08.913Z,0.38
2023-04-23T21:15:41.542Z,0.40
2023-04-23T21:18:12.434Z,0.30
2023-04-23T21:20:39.804Z,0.60
2023-04-23T21:23:14.474Z,0.60
2023-04-23T21:25:41.754Z,0.25
2023-04-23T21:28:08.936Z,0.40
2023-04-23T21:30:55.233Z,0.40
2023-04-23T21:33:28.569Z,0.43
2023-04-23T21:36:00.976Z,0.30
2023-04-23T21:38:35.903Z,0.50
2023-04-23T21:41:15.962Z,0.40
2023-04-23T21:43:52.374Z,0.30
2023-04-23T21:46:21.216Z,0.50
2023-04-23T21:48:54.755Z,0.32
2023-04-23T21:51:30.786Z,0.55
2023-04-23T21:54:09.806Z,0.55
2023-04-23T21:56:46.675Z,0.40
2023-04-23T21:59:21.534Z,0.40
2023-04-23T22:01:58.428Z,0.50
2023-04-23T22:04:30.077Z,0.60
2023-04-23T22:07:05.191Z,0.50
2023-04-23T22:09:32.568Z,0.52
2023-04-23T22:12:04.886Z,0.75
2023-04-23T22:14:32.266Z,0.38
2023-04-23T22:17:02.123Z,0.60
2023-04-23T22:22:18.263Z,0.50
2023-04-23T22:24:46.247Z,0.75
2023-04-23T22:27:22.194Z,0.60
2023-04-23T22:29:49.674Z,0.40
2023-04-23T22:32:19.134Z,0.50
2023-04-23T22:34:46.428Z,0.50
2023-04-23T22:37:19.478Z,0.65
2023-04-23T22:39:47.044Z,0.60
2023-04-23T22:42:16.857Z,0.75
2023-04-23T22:44:46.636Z,1.10
2023-04-23T22:47:17.867Z,0.60
2023-04-23T22:49:52.116Z,0.93
2023-04-23T22:52:27.878Z,0.60
2023-04-23T22:55:00.310Z,0.60
2023-04-23T22:57:31.012Z,0.77
2023-04-23T23:00:11.670Z,0.63
2023-04-23T23:05:22.076Z,0.75
2023-04-23T23:07:49.368Z,1.05
2023-04-23T23:10:16.648Z,0.88
2023-04-23T23:12:53.703Z,1.15
2023-04-23T23:15:23.422Z,1.17
2023-04-23T23:17:56.836Z,0.68
2023-04-23T23:47:37.060Z,0.60
